Bookmark and Share
Track history (hours):
 

Bluarrow

Last reported at 2014-Apr-12 20:12 UTC. Time now 2014-Apr-18 10:47 UTC.
Position N 35°56' W 005°09'.

Length 126 m; draft 8.1 m.

Type: Cargo ship. MMSI: 255797000.

NotesDate/timePositionNaut miles runAvg speedWind from/ knotsBaromVisibWave heightAir tempDewpointWater temp
2014-Apr-12 20:12N 35°56' W 005°09'711.6
2014-Apr-12 19:34N 35°55' W 005°18'1 0.9
2014-Apr-12 18:31N 35°54' W 005°19'0 0.0
2014-Apr-12 17:31N 35°54' W 005°19'0 0.0
2014-Apr-12 16:31N 35°54' W 005°19'0 0.0
2014-Apr-12 15:31N 35°54' W 005°19'0 0.5
2014-Apr-12 14:34N 35°54' W 005°19'1 0.6
2014-Apr-12 13:32N 35°55' W 005°19'1 1.2
2014-Apr-12 12:34N 35°55' W 005°20'0 0.0
2014-Apr-12 11:34N 35°55' W 005°20'0 0.0
2014-Apr-12 10:34N 35°55' W 005°20'0 0.0
2014-Apr-12 09:33N 35°55' W 005°20'4 3.9
2014-Apr-12 08:33N 35°57' W 005°24'1212.3
2014-Apr-12 07:32N 35°55' W 005°39'8011.4
2014-Apr-12 00:31N 36°10' W 007°17'2511.5
2014-Apr-11 22:23N 36°15' W 007°46'1011.5
2014-Apr-11 21:33N 36°18' W 007°58'3311.0
2014-Apr-11 18:33N 36°26' W 008°38'4210.4
2014-Apr-11 14:32N 36°43' W 009°25'1010.5
2014-Apr-11 13:33N 36°51' W 009°32'1111.1
2014-Apr-11 12:33N 37°02' W 009°36'1111.2
2014-Apr-11 11:33N 37°13' W 009°39'1111.3
2014-Apr-11 10:33N 37°24' W 009°42'1711.3
2014-Apr-11 09:04N 37°40' W 009°47'711.2
2014-Apr-11 08:28N 37°47' W 009°49'  
2014-Apr-07 07:10N 39°18' W 009°46'4010.5
2014-Apr-07 03:23N 38°38' W 009°49'1010.2
2014-Apr-07 02:24N 38°29' W 009°46'1010.3
2014-Apr-07 01:26N 38°19' W 009°43'910.5
2014-Apr-07 00:33N 38°10' W 009°40'1110.6
2014-Apr-06 23:33N 37°60' W 009°37'1110.5
2014-Apr-06 22:33N 37°49' W 009°34'1010.4
2014-Apr-06 21:33N 37°39' W 009°32'1010.4
2014-Apr-06 20:33N 37°29' W 009°29'1010.3
2014-Apr-06 19:33N 37°19' W 009°26'1110.3
2014-Apr-06 18:28N 37°08' W 009°24'19 9.7
2014-Apr-06 16:32N 36°51' W 009°14'9 9.3
2014-Apr-06 15:33N 36°45' W 009°05'20 9.9
2014-Apr-06 13:33N 36°38' W 008°43'2110.6
2014-Apr-06 11:33N 36°30' W 008°18'2410.8
2014-Apr-06 09:21N 36°23' W 007°50'1210.8
2014-Apr-06 08:15N 36°20' W 007°36'9110.1
2014-Apr-05 23:13N 35°58' W 005°46'6 8.2
2014-Apr-05 22:30N 35°58' W 005°39'7 7.1
2014-Apr-05 21:33N 35°60' W 005°31'7 6.5
2014-Apr-05 20:33N 36°02' W 005°23'7 7.0
2014-Apr-05 19:33N 36°05' W 005°16'9 9.2
2014-Apr-05 18:33N 36°10' W 005°06'  

Dump ship's entire track history

sailing weather and tide predictions

Bluarrow — CRXN — position and weather